Time;durP1;ratioP1;P1;durP2;ratioP2;P2;SDS_P1;SDS_P2;PMS_P1;PMS_P2;Temp;Humidity;BMP_temperature;BMP_pressure;BME280_temperature;BME280_humidity;BME280_pressure;Samples;Min_cycle;Max_cycle;Signal;HPM_P1;HPM_P2
2022/02/19 00:00:37;;;;;;;7.68;1.70;;;15.80;57.30;;;;;;4207188;28;20114;-60
2022/02/19 00:02:59;;;;;;;10.18;2.30;;;15.80;57.50;;;;;;4194649;28;20044;-60
2022/02/19 00:05:22;;;;;;;13.27;2.80;;;15.80;57.40;;;;;;4212159;28;20157;-60
2022/02/19 00:07:45;;;;;;;7.70;3.22;;;15.80;57.00;;;;;;4211399;28;20543;-60
2022/02/19 00:10:07;;;;;;;8.15;2.28;;;15.90;57.10;;;;;;4220646;28;20044;-64
2022/02/19 00:12:31;;;;;;;12.20;2.80;;;15.90;57.10;;;;;;4211569;28;20081;-64
2022/02/19 00:14:53;;;;;;;14.80;2.85;;;15.90;57.00;;;;;;4211676;28;20556;-64
2022/02/19 00:17:16;;;;;;;11.52;3.00;;;15.90;57.40;;;;;;4211698;28;20121;-64
2022/02/19 00:19:38;;;;;;;19.10;3.97;;;15.90;57.10;;;;;;4209703;28;20602;-64
2022/02/19 00:22:00;;;;;;;13.60;3.15;;;15.80;57.00;;;;;;4211165;28;20101;-64
2022/02/19 00:24:23;;;;;;;16.58;3.70;;;15.90;56.80;;;;;;4211038;28;20774;-64
2022/02/19 00:26:45;;;;;;;14.77;3.55;;;15.80;56.80;;;;;;4210323;28;20056;-63
2022/02/19 00:29:09;;;;;;;11.80;2.88;;;15.80;57.10;;;;;;4217288;28;20384;-63
2022/02/19 00:31:33;;;;;;;11.05;3.55;;;15.80;57.50;;;;;;4193384;28;20135;-63
2022/02/19 00:33:55;;;;;;;18.35;3.28;;;15.80;57.60;;;;;;4192625;28;20114;-63
2022/02/19 00:36:17;;;;;;;12.85;3.20;;;15.90;58.50;;;;;;4209801;28;20424;-63
2022/02/19 00:38:41;;;;;;;10.90;2.35;;;15.90;57.80;;;;;;4209550;28;20056;-63
2022/02/19 00:41:03;;;;;;;11.30;2.92;;;15.90;57.80;;;;;;4196150;28;20044;-63
2022/02/19 00:43:27;;;;;;;12.73;2.97;;;15.90;57.90;;;;;;4219359;27;20130;-63
2022/02/19 00:45:51;;;;;;;9.98;2.28;;;15.90;57.70;;;;;;4210235;28;20059;-63
2022/02/19 00:48:14;;;;;;;13.05;3.67;;;15.90;57.80;;;;;;4226154;28;20050;-63
2022/02/19 00:50:52;;;;;;;10.02;2.53;;;15.90;57.80;;;;;;4210540;28;20559;-64
2022/02/19 00:53:14;;;;;;;10.27;3.05;;;15.90;58.00;;;;;;4192239;28;20408;-64
2022/02/19 00:55:37;;;;;;;13.23;2.83;;;15.90;58.10;;;;;;4193934;28;20041;-64
2022/02/19 00:57:59;;;;;;;8.77;2.20;;;15.90;58.20;;;;;;4206105;28;20048;-64
2022/02/19 01:00:22;;;;;;;7.85;2.63;;;15.80;58.80;;;;;;4208821;28;20047;-63
2022/02/19 01:03:06;;;;;;;9.07;2.35;;;15.80;58.30;;;;;;4209215;28;20064;-59
2022/02/19 01:05:29;;;;;;;10.75;2.00;;;15.80;58.40;;;;;;4209092;28;20476;-60
2022/02/19 01:07:51;;;;;;;9.90;2.25;;;15.80;58.30;;;;;;4208884;28;20074;-60
2022/02/19 01:10:14;;;;;;;5.03;1.60;;;15.80;58.40;;;;;;4199978;28;20048;-59
2022/02/19 01:12:37;;;;;;;7.63;2.05;;;15.80;58.60;;;;;;4207178;28;20491;-59
2022/02/19 01:14:59;;;;;;;8.98;1.95;;;15.80;58.70;;;;;;4210018;28;20050;-59
2022/02/19 01:17:21;;;;;;;9.23;2.15;;;15.80;58.80;;;;;;4210443;28;20062;-59
2022/02/19 01:19:44;;;;;;;7.28;2.35;;;15.80;58.70;;;;;;4202202;28;20153;-59
2022/02/19 01:22:06;;;;;;;9.82;2.38;;;15.90;58.70;;;;;;4193575;28;20064;-59
2022/02/19 01:24:28;;;;;;;6.18;1.63;;;15.80;58.70;;;;;;4193304;28;20068;-59
2022/02/19 01:26:54;;;;;;;6.32;2.25;;;15.80;58.70;;;;;;4234340;27;20430;-60
2022/02/19 01:29:16;;;;;;;5.70;1.67;;;15.80;59.00;;;;;;4205954;28;20070;-60
2022/02/19 01:31:38;;;;;;;16.73;2.85;;;15.80;59.00;;;;;;4176467;28;20143;-60
2022/02/19 01:34:01;;;;;;;8.52;2.00;;;15.80;59.00;;;;;;4175086;28;20041;-59
2022/02/19 01:36:26;;;;;;;10.45;1.77;;;15.90;58.90;;;;;;4175461;28;20483;-62
2022/02/19 01:38:49;;;;;;;4.88;1.55;;;15.90;58.80;;;;;;4178304;28;20148;-63
2022/02/19 01:41:11;;;;;;;9.50;2.53;;;15.90;58.80;;;;;;4161330;28;20057;-64
2022/02/19 01:43:33;;;;;;;5.78;1.65;;;16.00;58.90;;;;;;4176546;28;20049;-63
2022/02/19 01:45:56;;;;;;;4.30;0.80;;;16.00;58.70;;;;;;4190588;28;20420;-64
2022/02/19 01:48:19;;;;;;;0.40;0.38;;;16.10;58.40;;;;;;4209952;28;20052;-63
2022/02/19 01:50:43;;;;;;;2.65;0.70;;;16.10;58.50;;;;;;4174841;28;20436;-63
2022/02/19 01:53:08;;;;;;;2.10;0.73;;;16.10;58.40;;;;;;4176756;28;20075;-64
2022/02/19 01:55:36;;;;;;;1.02;0.47;;;16.10;58.30;;;;;;4175241;28;20040;-64
2022/02/19 01:58:11;;;;;;;3.72;0.75;;;16.10;58.40;;;;;;4176349;28;20416;-64
2022/02/19 02:00:51;;;;;;;2.92;0.90;;;16.10;58.40;;;;;;4176213;28;20056;-64
2022/02/19 02:03:31;;;;;;;3.60;1.30;;;16.10;58.70;;;;;;4175945;28;20051;-64
2022/02/19 02:06:01;;;;;;;3.50;1.20;;;16.00;58.80;;;;;;4195361;28;20052;-64
2022/02/19 02:08:25;;;;;;;6.55;1.65;;;16.00;58.90;;;;;;4224952;27;20101;-64
2022/02/19 02:10:48;;;;;;;7.53;1.48;;;16.00;58.90;;;;;;4191481;28;20060;-65
2022/02/19 02:13:21;;;;;;;8.07;1.63;;;16.00;59.00;;;;;;4191328;28;20060;-64
2022/02/19 02:15:43;;;;;;;6.03;1.05;;;15.90;59.20;;;;;;4206701;28;20105;-64
2022/02/19 02:18:11;;;;;;;7.63;1.77;;;15.90;59.30;;;;;;4207904;28;20036;-64
2022/02/19 02:20:33;;;;;;;5.68;1.80;;;15.90;59.30;;;;;;4210450;28;20056;-64
2022/02/19 02:22:59;;;;;;;6.85;1.58;;;15.90;59.20;;;;;;4208193;28;20048;-64
2022/02/19 02:25:27;;;;;;;7.22;1.35;;;15.90;59.30;;;;;;4208117;28;20055;-64
2022/02/19 02:27:49;;;;;;;7.30;1.80;;;15.90;59.40;;;;;;4205373;28;20560;-65
2022/02/19 02:30:12;;;;;;;7.45;1.30;;;15.80;59.50;;;;;;4191174;28;20052;-64
2022/02/19 02:32:39;;;;;;;8.55;1.70;;;15.80;59.60;;;;;;4192815;28;20536;-64
2022/02/19 02:35:01;;;;;;;5.82;1.13;;;15.80;59.80;;;;;;4206228;28;20048;-64
2022/02/19 02:37:30;;;;;;;4.25;1.38;;;15.70;59.90;;;;;;4222275;28;20047;-64
2022/02/19 02:39:53;;;;;;;7.85;1.58;;;15.70;59.90;;;;;;4207647;28;20072;-64
2022/02/19 02:42:23;;;;;;;2.10;0.80;;;15.80;60.00;;;;;;4207492;28;20101;-59
2022/02/19 02:44:45;;;;;;;1.55;0.50;;;15.90;59.90;;;;;;4209332;28;20051;-60
2022/02/19 02:47:20;;;;;;;0.68;0.30;;;16.00;59.60;;;;;;4208054;28;20063;-60
2022/02/19 02:49:44;;;;;;;1.40;0.50;;;16.00;59.30;;;;;;4219035;28;20530;-64
2022/02/19 02:52:09;;;;;;;1.75;0.30;;;16.00;60.00;;;;;;4192333;28;20037;-65
2022/02/19 02:54:36;;;;;;;2.67;0.50;;;16.00;59.30;;;;;;4219303;28;20134;-64
2022/02/19 02:57:00;;;;;;;0.57;0.32;;;16.10;59.50;;;;;;4190844;28;20056;-64
2022/02/19 02:59:23;;;;;;;1.02;0.63;;;16.10;59.40;;;;;;4191029;28;20072;-64
2022/02/19 03:01:45;;;;;;;0.65;0.50;;;16.20;59.30;;;;;;4202910;28;20055;-64
2022/02/19 03:04:07;;;;;;;1.52;0.40;;;16.30;59.00;;;;;;4207498;28;20079;-64
2022/02/19 03:06:30;;;;;;;0.60;0.50;;;16.30;58.90;;;;;;4218652;28;20127;-64
2022/02/19 03:08:52;;;;;;;2.70;0.50;;;16.40;58.80;;;;;;4194667;28;20082;-64
2022/02/19 03:11:14;;;;;;;2.15;0.40;;;16.50;58.60;;;;;;4223173;27;20095;-64
2022/02/19 03:13:40;;;;;;;1.45;0.55;;;16.60;58.30;;;;;;4194174;28;20106;-64
2022/02/19 03:16:03;;;;;;;0.80;0.40;;;16.70;58.10;;;;;;4222841;28;20139;-65
2022/02/19 03:18:25;;;;;;;1.35;0.75;;;16.70;57.90;;;;;;4221895;27;20134;-65
2022/02/19 03:20:50;;;;;;;1.52;0.30;;;16.70;58.70;;;;;;4193886;28;20122;-64
2022/02/19 03:23:13;;;;;;;1.52;0.40;;;16.70;58.00;;;;;;4207687;28;20064;-65
2022/02/19 03:25:35;;;;;;;0.50;0.32;;;16.70;58.00;;;;;;4227464;27;20054;-64
2022/02/19 03:28:02;;;;;;;1.65;0.40;;;16.60;58.10;;;;;;4214267;28;20828;-59
2022/02/19 03:30:29;;;;;;;2.58;0.80;;;16.60;58.30;;;;;;4193768;28;20409;-60
2022/02/19 03:32:54;;;;;;;2.70;0.70;;;16.50;58.40;;;;;;4208441;28;20051;-60
2022/02/19 03:35:18;;;;;;;2.63;0.68;;;16.40;58.50;;;;;;4193901;28;20060;-60
2022/02/19 03:37:41;;;;;;;0.98;0.80;;;16.30;58.70;;;;;;4194261;28;20137;-60
2022/02/19 03:40:12;;;;;;;0.80;0.63;;;16.20;59.00;;;;;;4207539;28;20241;-60
2022/02/19 03:42:35;;;;;;;2.25;0.50;;;16.20;59.10;;;;;;4215341;27;20776;-59
2022/02/19 03:44:58;;;;;;;1.88;0.85;;;16.10;59.20;;;;;;4210259;28;20451;-60
2022/02/19 03:47:21;;;;;;;4.50;1.20;;;16.10;59.20;;;;;;4193702;28;20469;-60
2022/02/19 03:49:52;;;;;;;3.17;1.00;;;16.10;59.30;;;;;;4209988;28;20070;-60
2022/02/19 03:52:14;;;;;;;1.98;0.77;;;16.10;59.30;;;;;;4211525;28;20042;-60
2022/02/19 03:54:37;;;;;;;6.70;1.35;;;16.10;59.20;;;;;;4209964;28;20419;-60
2022/02/19 03:56:59;;;;;;;3.03;0.90;;;16.10;59.40;;;;;;4210212;28;20197;-60
2022/02/19 03:59:21;;;;;;;0.73;0.73;;;16.20;59.30;;;;;;4209775;28;20452;-59
2022/02/19 04:01:48;;;;;;;2.13;0.60;;;16.30;59.10;;;;;;4210566;28;20138;-60
2022/02/19 04:04:17;;;;;;;2.53;0.60;;;16.40;58.80;;;;;;4209795;28;20101;-60
2022/02/19 04:06:40;;;;;;;2.28;0.70;;;16.40;58.60;;;;;;4209712;28;20052;-59
2022/02/19 04:09:04;;;;;;;1.02;0.40;;;16.50;58.40;;;;;;4204155;28;20086;-58
2022/02/19 04:11:29;;;;;;;2.17;0.70;;;16.50;58.50;;;;;;4194760;28;20511;-59
2022/02/19 04:13:53;;;;;;;1.13;0.55;;;16.40;58.50;;;;;;4194648;28;20124;-59
2022/02/19 04:16:20;;;;;;;4.35;1.10;;;16.40;58.60;;;;;;4194313;28;20370;-59
2022/02/19 04:18:45;;;;;;;3.63;0.88;;;16.40;58.70;;;;;;4190459;28;20139;-59
2022/02/19 04:21:12;;;;;;;4.95;0.95;;;16.40;58.70;;;;;;4177734;28;20057;-60
2022/02/19 04:23:35;;;;;;;2.25;0.90;;;16.40;58.70;;;;;;4183785;28;20395;-59
2022/02/19 04:26:00;;;;;;;3.42;0.75;;;16.40;58.60;;;;;;4194457;28;20574;-60
2022/02/19 04:28:31;;;;;;;4.72;1.40;;;16.30;58.80;;;;;;4208160;28;20127;-59
2022/02/19 04:30:53;;;;;;;2.80;0.65;;;16.30;58.80;;;;;;4209284;28;20135;-64
2022/02/19 04:33:16;;;;;;;4.90;0.98;;;16.40;58.90;;;;;;4194409;28;20063;-64
2022/02/19 04:35:45;;;;;;;2.13;0.80;;;16.40;58.80;;;;;;4194045;28;20528;-63
2022/02/19 04:38:09;;;;;;;2.70;0.90;;;16.40;58.80;;;;;;4193561;28;20086;-59
2022/02/19 04:40:32;;;;;;;4.50;1.33;;;16.40;58.70;;;;;;4203522;28;20058;-59
2022/02/19 04:42:55;;;;;;;1.83;0.60;;;16.40;58.70;;;;;;4209614;28;20552;-60
2022/02/19 04:45:23;;;;;;;3.05;0.80;;;16.50;58.60;;;;;;4209326;28;20055;-59
2022/02/19 04:47:48;;;;;;;3.13;0.80;;;16.50;58.50;;;;;;4209106;28;20121;-63
2022/02/19 04:50:13;;;;;;;2.42;0.68;;;16.50;58.50;;;;;;4222324;28;20040;-64
2022/02/19 04:52:36;;;;;;;3.17;0.80;;;16.60;58.40;;;;;;4219076;27;20084;-64
2022/02/19 04:55:00;;;;;;;2.80;0.90;;;16.70;58.20;;;;;;4225695;27;20485;-63
2022/02/19 04:57:22;;;;;;;1.50;0.60;;;16.70;58.10;;;;;;4227511;27;20043;-63
2022/02/19 04:59:44;;;;;;;2.85;0.90;;;16.70;58.00;;;;;;4214699;28;20044;-63
2022/02/19 05:02:09;;;;;;;2.80;0.80;;;16.60;58.10;;;;;;4208939;28;20835;-63
2022/02/19 05:04:35;;;;;;;2.42;0.95;;;16.60;58.30;;;;;;4209245;28;20056;-63
2022/02/19 05:07:00;;;;;;;2.85;0.93;;;16.60;58.30;;;;;;4210781;28;20051;-63
2022/02/19 05:09:22;;;;;;;4.07;1.23;;;16.50;58.50;;;;;;4206325;28;20044;-63
2022/02/19 05:12:04;;;;;;;5.22;1.30;;;16.50;58.50;;;;;;4209152;28;20105;-64
2022/02/19 05:14:29;;;;;;;2.50;0.77;;;16.40;58.40;;;;;;4208768;28;20052;-64
2022/02/19 05:16:57;;;;;;;3.67;0.77;;;16.40;58.80;;;;;;4208728;28;20131;-64
2022/02/19 05:19:29;;;;;;;3.33;1.10;;;16.40;58.80;;;;;;4196366;28;20056;-64
2022/02/19 05:21:51;;;;;;;3.63;0.52;;;16.40;58.80;;;;;;4220641;27;20075;-64
2022/02/19 05:24:15;;;;;;;1.00;0.60;;;16.40;58.80;;;;;;4213441;28;20057;-64
2022/02/19 05:26:40;;;;;;;3.80;1.40;;;16.40;58.60;;;;;;4225597;28;20048;-65
2022/02/19 05:29:06;;;;;;;3.50;1.10;;;16.50;58.60;;;;;;4216229;28;20451;-64
2022/02/19 05:31:30;;;;;;;8.15;1.90;;;16.50;58.60;;;;;;4208246;28;20426;-64
2022/02/19 05:34:08;;;;;;;3.08;0.80;;;16.40;58.40;;;;;;4208695;28;20043;-64
2022/02/19 05:36:30;;;;;;;7.72;1.33;;;16.50;58.70;;;;;;4208725;28;20072;-60
2022/02/19 05:38:54;;;;;;;5.38;1.42;;;16.50;59.40;;;;;;4198952;28;20131;-60
2022/02/19 05:41:16;;;;;;;3.97;1.00;;;16.50;58.70;;;;;;4208839;28;20040;-60
2022/02/19 05:43:39;;;;;;;3.13;0.98;;;16.40;58.30;;;;;;4215525;28;20055;-61
2022/02/19 05:46:11;;;;;;;4.30;1.20;;;16.40;58.70;;;;;;4193006;28;20129;-60
2022/02/19 05:48:33;;;;;;;5.45;1.42;;;16.30;58.90;;;;;;4191988;28;20048;-60
2022/02/19 05:51:02;;;;;;;4.90;1.27;;;16.30;59.00;;;;;;4219827;27;20051;-61
2022/02/19 05:53:39;;;;;;;2.75;1.00;;;16.30;59.00;;;;;;4203714;28;20138;-59
2022/02/19 05:56:03;;;;;;;4.07;1.30;;;16.40;58.90;;;;;;4192071;28;20048;-59
2022/02/19 05:58:26;;;;;;;2.85;1.13;;;16.40;58.90;;;;;;4197987;28;20528;-59
2022/02/19 06:01:07;;;;;;;6.90;1.50;;;16.40;58.80;;;;;;4208164;28;20070;-65
2022/02/19 06:03:31;;;;;;;6.80;2.00;;;16.30;59.00;;;;;;4208173;28;20036;-65
2022/02/19 06:05:53;;;;;;;5.53;1.50;;;16.30;59.20;;;;;;4207976;28;20128;-65
2022/02/19 06:08:17;;;;;;;7.53;1.63;;;16.30;59.50;;;;;;4188911;28;20136;-65
2022/02/19 06:10:40;;;;;;;8.85;1.60;;;16.40;59.40;;;;;;4189405;28;20051;-60
2022/02/19 06:13:05;;;;;;;7.00;1.75;;;16.40;59.30;;;;;;4191733;28;20052;-60
2022/02/19 06:15:34;;;;;;;8.38;2.08;;;16.40;59.20;;;;;;4191153;28;20052;-60
2022/02/19 06:18:16;;;;;;;11.90;2.20;;;16.30;59.30;;;;;;4192129;28;20068;-59
2022/02/19 06:20:40;;;;;;;11.18;2.17;;;16.30;59.40;;;;;;4205295;28;20109;-62
2022/02/19 06:23:11;;;;;;;9.20;2.10;;;16.30;59.50;;;;;;4200681;28;20130;-63
2022/02/19 06:25:34;;;;;;;8.70;1.73;;;16.30;60.50;;;;;;4208269;28;20052;-63
2022/02/19 06:27:59;;;;;;;12.55;2.97;;;16.20;59.90;;;;;;4197998;28;20037;-64
2022/02/19 06:30:24;;;;;;;13.15;2.92;;;16.30;59.90;;;;;;4190954;28;20048;-63
2022/02/19 06:32:51;;;;;;;14.57;2.72;;;16.40;59.60;;;;;;4190659;28;20049;-64
2022/02/19 06:35:14;;;;;;;7.72;2.45;;;16.50;59.20;;;;;;4191614;28;20056;-64
2022/02/19 06:37:43;;;;;;;9.63;2.78;;;16.60;59.10;;;;;;4217065;28;20043;-66
2022/02/19 06:40:06;;;;;;;11.65;2.08;;;16.70;59.00;;;;;;4207735;28;20062;-64
2022/02/19 06:42:31;;;;;;;8.38;1.80;;;16.70;58.70;;;;;;4212935;28;20058;-64
2022/02/19 06:44:56;;;;;;;8.70;2.05;;;16.70;58.70;;;;;;4208064;28;20117;-64
2022/02/19 06:47:21;;;;;;;14.30;3.33;;;16.60;58.70;;;;;;4207788;28;20188;-64
2022/02/19 06:49:43;;;;;;;10.32;2.50;;;16.60;58.70;;;;;;4191145;28;20141;-65
2022/02/19 06:52:07;;;;;;;10.30;2.60;;;16.50;59.00;;;;;;4195997;28;20044;-65
2022/02/19 06:54:31;;;;;;;9.50;2.53;;;16.50;59.20;;;;;;4226112;28;20450;-65
2022/02/19 06:56:55;;;;;;;11.45;2.88;;;16.50;59.40;;;;;;4224879;28;20047;-65
2022/02/19 06:59:18;;;;;;;12.50;2.10;;;16.40;59.20;;;;;;4206769;28;20068;-64
2022/02/19 07:01:40;;;;;;;10.23;2.53;;;16.40;59.40;;;;;;4193587;28;20105;-65
2022/02/19 07:04:02;;;;;;;9.75;2.78;;;16.40;59.20;;;;;;4208152;28;20085;-65
2022/02/19 07:06:43;;;;;;;9.02;1.77;;;16.30;59.50;;;;;;4212081;28;20416;-66
2022/02/19 07:09:06;;;;;;;8.43;2.40;;;16.20;59.60;;;;;;4192679;28;20151;-64
2022/02/19 07:11:30;;;;;;;11.82;2.50;;;16.30;60.30;;;;;;4219963;28;20046;-63
2022/02/19 07:13:52;;;;;;;11.85;2.38;;;16.30;60.30;;;;;;4190974;28;20071;-61
2022/02/19 07:16:14;;;;;;;8.15;2.22;;;16.30;60.00;;;;;;4190926;28;20534;-61
2022/02/19 07:18:45;;;;;;;10.60;2.67;;;16.30;60.00;;;;;;4213411;28;20070;-61
2022/02/19 07:21:10;;;;;;;8.45;2.33;;;16.30;59.80;;;;;;4209195;28;20102;-61
2022/02/19 07:23:32;;;;;;;7.50;2.17;;;16.40;59.90;;;;;;4207788;28;20074;-61
2022/02/19 07:25:55;;;;;;;7.32;2.22;;;16.50;59.90;;;;;;4208890;28;20046;-61
2022/02/19 07:28:18;;;;;;;10.85;2.28;;;16.60;59.60;;;;;;4202034;28;20040;-61
2022/02/19 07:30:40;;;;;;;9.18;2.33;;;16.60;59.00;;;;;;4227105;27;20049;-61
2022/02/19 07:33:04;;;;;;;9.00;1.88;;;16.70;59.00;;;;;;4207529;28;20545;-61
2022/02/19 07:35:38;;;;;;;10.40;2.78;;;16.70;58.70;;;;;;4207130;28;20107;-61
2022/02/19 07:38:00;;;;;;;8.65;2.42;;;16.70;58.60;;;;;;4220199;28;20132;-65
2022/02/19 07:40:22;;;;;;;12.43;3.08;;;16.70;58.70;;;;;;4190470;28;20057;-64
2022/02/19 07:42:44;;;;;;;9.77;1.02;;;16.60;58.60;;;;;;4190873;28;20139;-64
2022/02/19 07:45:26;;;;;;;9.32;1.65;;;16.50;59.00;;;;;;4192982;28;20049;-64
2022/02/19 07:48:13;;;;;;;7.82;2.47;;;16.50;58.90;;;;;;4179436;28;20063;-64
2022/02/19 07:59:39;;;;;;;6.15;1.60;;;16.40;59.00;;;;;;4216444;28;20059;-65
2022/02/19 08:02:06;;;;;;;8.55;2.28;;;16.30;58.90;;;;;;4226745;28;20048;-63
2022/02/19 08:04:28;;;;;;;10.93;2.58;;;16.30;58.90;;;;;;4225444;28;20066;-64
2022/02/19 08:06:51;;;;;;;10.45;3.00;;;16.20;59.10;;;;;;4209820;28;20051;-64
2022/02/19 08:09:13;;;;;;;6.05;2.42;;;16.30;59.40;;;;;;4197475;28;20504;-65
2022/02/19 08:11:36;;;;;;;9.27;2.35;;;16.30;59.10;;;;;;4193377;28;20055;-64
2022/02/19 08:13:58;;;;;;;9.75;2.22;;;16.40;58.90;;;;;;4193259;28;20135;-61
2022/02/19 08:16:20;;;;;;;6.07;1.40;;;16.50;58.80;;;;;;4212779;28;20097;-61
2022/02/19 08:18:47;;;;;;;4.35;1.15;;;16.40;58.70;;;;;;4212920;28;20448;-62
2022/02/19 08:21:10;;;;;;;5.72;1.60;;;16.40;59.00;;;;;;4216086;27;20425;-61
2022/02/19 08:23:31;;;;;;;4.93;1.30;;;16.40;59.10;;;;;;4226482;27;20055;-62
2022/02/19 08:25:54;;;;;;;6.72;1.75;;;16.40;59.20;;;;;;4227948;27;20053;-63
2022/02/19 08:28:17;;;;;;;6.93;1.55;;;16.30;58.80;;;;;;4224540;28;20557;-63
2022/02/19 08:30:40;;;;;;;8.93;1.90;;;16.30;59.40;;;;;;4211272;28;20040;-63
2022/02/19 08:33:02;;;;;;;8.35;1.60;;;16.30;59.50;;;;;;4211133;28;20044;-63
2022/02/19 08:35:26;;;;;;;6.88;2.22;;;16.30;59.70;;;;;;4211375;28;20048;-64
2022/02/19 08:37:48;;;;;;;9.10;1.80;;;16.30;59.80;;;;;;4216828;27;20055;-63
2022/02/19 08:40:14;;;;;;;14.57;2.35;;;16.30;59.70;;;;;;4210182;28;20048;-63
2022/02/19 08:42:36;;;;;;;10.68;1.98;;;16.30;59.80;;;;;;4211231;28;20048;-64
2022/02/19 08:44:59;;;;;;;13.00;2.15;;;16.30;60.00;;;;;;4208659;28;20066;-63
2022/02/19 08:47:21;;;;;;;6.82;2.22;;;16.20;60.20;;;;;;4208538;28;20043;-64
2022/02/19 08:49:43;;;;;;;9.20;2.42;;;16.20;60.30;;;;;;4208591;28;20083;-64
2022/02/19 08:52:07;;;;;;;9.45;2.33;;;16.20;60.50;;;;;;4207275;28;20539;-65
2022/02/19 08:54:29;;;;;;;10.65;2.58;;;16.20;60.50;;;;;;4208212;28;20051;-64
2022/02/19 08:56:51;;;;;;;4.45;1.70;;;16.20;61.20;;;;;;4206192;28;20047;-64
2022/02/19 08:59:13;;;;;;;5.43;1.42;;;16.30;60.20;;;;;;4206710;28;20097;-64
2022/02/19 09:01:36;;;;;;;4.97;1.20;;;16.40;59.90;;;;;;4208047;28;20051;-64
2022/02/19 09:04:02;;;;;;;4.22;1.20;;;16.50;59.70;;;;;;4207808;28;20067;-64
2022/02/19 09:06:25;;;;;;;6.40;1.48;;;16.60;60.10;;;;;;4207122;28;20044;-64
2022/02/19 09:08:48;;;;;;;4.90;1.42;;;16.70;59.10;;;;;;4208339;28;20070;-61
2022/02/19 09:11:11;;;;;;;6.35;1.70;;;16.70;58.90;;;;;;4208066;28;20152;-62
2022/02/19 09:13:33;;;;;;;9.95;2.05;;;16.70;59.10;;;;;;4205750;28;20056;-61
2022/02/19 09:15:55;;;;;;;6.07;1.80;;;16.70;59.20;;;;;;4206297;28;20040;-61
2022/02/19 09:18:18;;;;;;;6.30;2.00;;;16.70;59.20;;;;;;4208323;28;20040;-61
2022/02/19 09:20:40;;;;;;;12.95;1.75;;;16.60;59.30;;;;;;4207796;28;20105;-61
2022/02/19 09:23:03;;;;;;;9.77;2.65;;;16.60;59.30;;;;;;4207220;28;20082;-61
2022/02/19 09:25:27;;;;;;;7.95;1.85;;;16.60;59.50;;;;;;4206758;28;20495;-61
2022/02/19 09:27:49;;;;;;;13.70;2.40;;;16.60;59.40;;;;;;4207316;28;20093;-61
2022/02/19 09:30:12;;;;;;;7.20;2.00;;;16.60;59.40;;;;;;4207086;28;20048;-61
2022/02/19 09:32:35;;;;;;;12.00;2.50;;;16.60;59.40;;;;;;4207673;28;20055;-60
2022/02/19 09:34:57;;;;;;;9.60;2.47;;;16.60;59.40;;;;;;4207274;28;20070;-60
2022/02/19 09:37:20;;;;;;;9.98;2.10;;;16.60;59.50;;;;;;4205432;28;20510;-61
2022/02/19 09:39:43;;;;;;;13.85;2.78;;;16.60;59.60;;;;;;4208047;28;20059;-60
2022/02/19 09:42:08;;;;;;;11.80;2.42;;;16.60;59.60;;;;;;4207104;28;20047;-60
2022/02/19 09:44:31;;;;;;;9.98;2.28;;;16.60;59.40;;;;;;4207669;28;20131;-61
2022/02/19 09:46:55;;;;;;;11.32;2.15;;;16.60;59.60;;;;;;4206629;28;20056;-60
2022/02/19 09:49:19;;;;;;;15.88;2.25;;;16.60;59.60;;;;;;4207454;28;20484;-60
2022/02/19 09:51:41;;;;;;;10.88;2.50;;;16.60;59.60;;;;;;4206553;28;20051;-61
2022/02/19 09:54:04;;;;;;;9.60;2.38;;;16.70;59.60;;;;;;4207571;28;20137;-60
2022/02/19 09:56:28;;;;;;;13.20;2.35;;;16.70;59.40;;;;;;4207313;28;20139;-61
2022/02/19 09:58:52;;;;;;;11.75;2.55;;;16.80;59.20;;;;;;4206337;28;20055;-61
2022/02/19 10:01:18;;;;;;;11.50;2.80;;;16.80;59.20;;;;;;4207147;28;20456;-61
2022/02/19 10:03:40;;;;;;;6.47;1.75;;;16.80;58.90;;;;;;4207038;28;20048;-60
2022/02/19 10:06:11;;;;;;;9.00;2.50;;;16.80;58.90;;;;;;4207246;28;20051;-61
2022/02/19 10:08:33;;;;;;;10.45;2.17;;;16.80;58.80;;;;;;4206585;28;20188;-61
2022/02/19 10:10:56;;;;;;;9.23;1.83;;;16.80;59.20;;;;;;4207320;28;20488;-61
2022/02/19 10:13:29;;;;;;;11.52;2.47;;;16.90;59.20;;;;;;4206690;28;20131;-61
2022/02/19 10:15:52;;;;;;;13.05;2.50;;;17.20;58.40;;;;;;4207046;28;20168;-61
2022/02/19 10:18:24;;;;;;;7.93;2.25;;;17.50;57.80;;;;;;4205859;28;20133;-61
2022/02/19 10:20:49;;;;;;;10.02;2.30;;;18.00;56.80;;;;;;4206239;28;20185;-61
2022/02/19 10:23:13;;;;;;;8.10;2.22;;;18.40;55.60;;;;;;4207126;28;20048;-61
2022/02/19 10:25:35;;;;;;;11.38;2.38;;;18.80;54.50;;;;;;4206999;28;20086;-65
2022/02/19 10:28:00;;;;;;;9.25;2.63;;;19.10;53.70;;;;;;4206457;28;20131;-64
2022/02/19 10:30:24;;;;;;;10.35;2.50;;;19.40;53.10;;;;;;4206727;28;20048;-64
2022/02/19 10:32:49;;;;;;;10.63;2.20;;;19.50;52.60;;;;;;4206627;28;20048;-64
2022/02/19 10:35:12;;;;;;;5.05;1.90;;;19.50;52.50;;;;;;4205974;28;20056;-64
2022/02/19 10:37:45;;;;;;;10.00;2.47;;;19.40;52.60;;;;;;4206492;28;20124;-64
2022/02/19 10:40:09;;;;;;;8.55;2.13;;;19.20;52.70;;;;;;4206651;28;20062;-64
2022/02/19 10:42:33;;;;;;;10.35;2.92;;;19.10;53.20;;;;;;4206613;28;20051;-64
2022/02/19 10:44:56;;;;;;;9.20;2.22;;;19.00;53.50;;;;;;4206909;28;20484;-60
2022/02/19 10:47:20;;;;;;;13.65;2.40;;;18.90;54.00;;;;;;4206433;28;20048;-61
2022/02/19 10:50:03;;;;;;;10.73;2.08;;;18.80;54.20;;;;;;4206479;28;20052;-60
2022/02/19 10:52:28;;;;;;;11.05;3.30;;;18.70;54.30;;;;;;4205683;28;20052;-61
2022/02/19 10:54:51;;;;;;;10.35;2.13;;;18.50;55.30;;;;;;4206317;28;20048;-65
2022/02/19 10:57:14;;;;;;;6.45;1.85;;;18.40;54.90;;;;;;4205592;28;20109;-65
2022/02/19 10:59:36;;;;;;;9.20;2.08;;;18.30;55.30;;;;;;4206478;28;20404;-65
2022/02/19 11:01:58;;;;;;;9.57;2.30;;;18.20;55.50;;;;;;4204642;28;20109;-64
2022/02/19 11:04:22;;;;;;;4.85;1.42;;;18.20;55.80;;;;;;4206604;28;20047;-65
2022/02/19 11:06:46;;;;;;;9.30;2.35;;;18.20;55.70;;;;;;4206759;28;20059;-65
2022/02/19 11:09:10;;;;;;;6.78;2.45;;;18.20;55.50;;;;;;4205797;28;20044;-65
2022/02/19 11:11:34;;;;;;;8.95;2.15;;;18.30;55.50;;;;;;4206808;28;20052;-65
2022/02/19 11:13:57;;;;;;;8.38;1.70;;;18.40;55.30;;;;;;4206889;28;20039;-65
2022/02/19 11:16:20;;;;;;;7.05;1.67;;;18.50;55.10;;;;;;4206641;28;20067;-65
2022/02/19 11:18:43;;;;;;;11.07;2.47;;;18.60;55.00;;;;;;4206531;28;20435;-64
2022/02/19 11:21:25;;;;;;;10.77;2.15;;;18.60;54.70;;;;;;4206774;28;20131;-65
2022/02/19 11:23:50;;;;;;;8.90;2.38;;;18.70;54.70;;;;;;4206738;28;21573;-65
2022/02/19 11:26:13;;;;;;;5.95;2.28;;;18.70;54.60;;;;;;4205723;28;20056;-64
2022/02/19 11:28:38;;;;;;;6.03;2.35;;;18.60;54.80;;;;;;4206312;28;20178;-63
2022/02/19 11:31:01;;;;;;;7.07;2.08;;;18.60;54.80;;;;;;4209431;28;20044;-63
2022/02/19 11:33:26;;;;;;;7.03;2.10;;;18.70;54.70;;;;;;4209483;28;20518;-63
2022/02/19 11:35:48;;;;;;;12.18;2.80;;;18.80;54.40;;;;;;4209362;28;20040;-63
2022/02/19 11:38:22;;;;;;;10.68;2.97;;;18.90;54.10;;;;;;4209256;28;20412;-63
2022/02/19 11:40:46;;;;;;;7.95;1.70;;;18.90;54.10;;;;;;4208584;28;20066;-63
2022/02/19 11:43:12;;;;;;;9.82;1.83;;;18.80;54.20;;;;;;4209942;28;20067;-63
2022/02/19 11:45:41;;;;;;;7.78;1.90;;;18.70;54.50;;;;;;4209193;28;20140;-63
2022/02/19 11:48:26;;;;;;;8.20;2.13;;;18.60;54.70;;;;;;4208842;28;20139;-63
2022/02/19 11:50:49;;;;;;;4.15;1.23;;;18.50;55.00;;;;;;4208913;28;20186;-63
2022/02/19 11:53:26;;;;;;;9.82;1.67;;;18.50;55.30;;;;;;4209305;28;20463;-62
2022/02/19 11:55:50;;;;;;;8.75;2.03;;;18.40;55.40;;;;;;4208780;28;20655;-64
2022/02/19 11:58:18;;;;;;;11.05;2.10;;;18.30;56.20;;;;;;4209045;28;20063;-64
2022/02/19 12:00:45;;;;;;;9.07;1.88;;;18.30;56.50;;;;;;4208257;27;20063;-64
2022/02/19 12:03:19;;;;;;;6.55;1.88;;;18.20;55.90;;;;;;4208675;28;20135;-64
2022/02/19 12:06:20;;;;;;;12.63;1.90;;;18.20;55.80;;;;;;4208813;27;20040;-64
2022/02/19 12:09:08;;;;;;;9.18;1.80;;;18.30;55.70;;;;;;4208272;28;20056;-64
2022/02/19 12:11:33;;;;;;;9.73;1.70;;;18.30;55.70;;;;;;4208795;28;20597;-64
2022/02/19 12:13:57;;;;;;;8.63;1.73;;;18.40;55.70;;;;;;4208807;28;20101;-64
2022/02/19 12:16:43;;;;;;;5.35;1.77;;;18.40;55.50;;;;;;4209213;27;20052;-64
2022/02/19 12:19:09;;;;;;;7.88;2.35;;;18.40;55.30;;;;;;4199870;28;20197;-64
2022/02/19 12:21:32;;;;;;;5.18;1.42;;;18.40;55.70;;;;;;4208703;28;22992;-64
2022/02/19 12:24:10;;;;;;;8.45;2.45;;;18.50;55.60;;;;;;4209073;28;20044;-65
2022/02/19 12:27:12;;;;;;;6.20;2.10;;;18.60;55.20;;;;;;4208250;28;20081;-64
2022/02/19 12:29:37;;;;;;;6.50;1.42;;;18.60;55.20;;;;;;4208334;28;20063;-64
2022/02/19 12:32:04;;;;;;;5.38;1.35;;;18.50;55.20;;;;;;4208732;28;20105;-64
2022/02/19 12:34:27;;;;;;;8.75;2.17;;;18.40;55.40;;;;;;4208076;28;20052;-63
2022/02/19 12:36:53;;;;;;;4.72;1.92;;;18.40;56.50;;;;;;4208306;28;20059;-64
2022/02/19 12:39:16;;;;;;;8.70;2.17;;;18.40;55.70;;;;;;4206891;28;20048;-64
2022/02/19 12:41:42;;;;;;;11.70;2.42;;;18.40;55.70;;;;;;4207542;28;20364;-64